Brevator, Minnesota
Current Conditions -  °F | °C
As of 11:55 AM on Thursday 27 Nov 2014 (Local Time) from KDLH Reporting Station
Clear Clear  
Wind Chill: -9°   Ceiling: Unl
Heat Index:   Visibility: 10mi
Dew Point: -7°   Wind: 8mph
Humidity: 60%   Direction: 330°NNW
Pressure: 30.37"   Gusts: NA
Location:  46.8859°N, 92.4258°W
Report Text: KDLH 271755Z 33007KT 10SM CLR M16/M22 A3037 RMK AO2 SLP330 T11561217 11156 21228 58006
Loading
Personal Weather Stations






























Interactive Weather Map New forecast layout! Learn more

10-Day Weather Forecast

Advertisements
Track Severe Weather on mobile